sensor_id;sensor_type;location;lat;lon;timestamp;pressure;altitude;pressure_sealevel;temperature;humidity
76637;BME280;65532;52.124;5.480;2023-06-01T00:02:04;102413.09;;;10.53;88.21
76637;BME280;65532;52.124;5.480;2023-06-01T00:04:31;102410.59;;;10.52;88.41
76637;BME280;65532;52.124;5.480;2023-06-01T00:06:58;102408.59;;;10.60;88.24
76637;BME280;65532;52.124;5.480;2023-06-01T00:09:27;102402.78;;;10.63;88.32
76637;BME280;65532;52.124;5.480;2023-06-01T00:11:54;102402.41;;;10.66;88.27
76637;BME280;65532;52.124;5.480;2023-06-01T00:14:20;102405.31;;;10.65;88.89
76637;BME280;65532;52.124;5.480;2023-06-01T00:16:47;102407.38;;;10.63;88.42
76637;BME280;65532;52.124;5.480;2023-06-01T00:19:13;102402.72;;;10.57;88.61
76637;BME280;65532;52.124;5.480;2023-06-01T00:21:40;102398.53;;;10.54;88.79
76637;BME280;65532;52.124;5.480;2023-06-01T00:24:07;102401.22;;;10.54;89.25
76637;BME280;65532;52.124;5.480;2023-06-01T00:26:34;102398.06;;;10.50;88.92
76637;BME280;65532;52.124;5.480;2023-06-01T00:29:00;102386.84;;;10.54;88.83
76637;BME280;65532;52.124;5.480;2023-06-01T00:31:27;102388.91;;;10.52;88.92
76637;BME280;65532;52.124;5.480;2023-06-01T00:33:54;102397.44;;;10.48;89.40
76637;BME280;65532;52.124;5.480;2023-06-01T00:36:21;102402.47;;;10.52;89.08
76637;BME280;65532;52.124;5.480;2023-06-01T00:38:47;102399.31;;;10.48;88.77
76637;BME280;65532;52.124;5.480;2023-06-01T00:41:14;102398.91;;;10.51;89.26
76637;BME280;65532;52.124;5.480;2023-06-01T00:43:40;102403.88;;;10.47;88.86
76637;BME280;65532;52.124;5.480;2023-06-01T00:46:07;102392.91;;;10.56;88.18
76637;BME280;65532;52.124;5.480;2023-06-01T00:48:34;102392.28;;;10.54;88.87
76637;BME280;65532;52.124;5.480;2023-06-01T00:51:01;102398.72;;;10.53;88.79
76637;BME280;65532;52.124;5.480;2023-06-01T00:53:28;102398.06;;;10.50;88.81
76637;BME280;65532;52.124;5.480;2023-06-01T00:55:55;102396.00;;;10.53;88.96
76637;BME280;65532;52.124;5.480;2023-06-01T00:58:21;102398.91;;;10.51;89.17
76637;BME280;65532;52.124;5.480;2023-06-01T01:00:48;102397.28;;;10.57;88.33
76637;BME280;65532;52.124;5.480;2023-06-01T01:03:15;102397.50;;;10.55;88.57
76637;BME280;65532;52.124;5.480;2023-06-01T01:05:42;102395.38;;;10.50;88.59
76637;BME280;65532;52.124;5.480;2023-06-01T01:08:28;102394.72;;;10.48;88.30
76637;BME280;65532;52.124;5.480;2023-06-01T01:11:07;102392.66;;;10.50;88.44
76637;BME280;65532;52.124;5.480;2023-06-01T01:13:53;102397.00;;;10.45;88.09
76637;BME280;65532;52.124;5.480;2023-06-01T01:22:34;102392.03;;;10.48;88.57
76637;BME280;65532;52.124;5.480;2023-06-01T01:25:32;102395.31;;;10.44;88.84
76637;BME280;65532;52.124;5.480;2023-06-01T01:30:48;102398.31;;;10.34;89.58
76637;BME280;65532;52.124;5.480;2023-06-01T01:33:18;102393.28;;;10.31;89.51
76637;BME280;65532;52.124;5.480;2023-06-01T01:35:45;102392.44;;;10.31;88.86
76637;BME280;65532;52.124;5.480;2023-06-01T01:38:12;102394.97;;;10.32;89.10
76637;BME280;65532;52.124;5.480;2023-06-01T01:40:38;102392.00;;;10.27;89.18
76637;BME280;65532;52.124;5.480;2023-06-01T01:43:05;102390.50;;;10.25;89.34
76637;BME280;65532;52.124;5.480;2023-06-01T01:45:31;102408.31;;;10.19;89.33
76637;BME280;65532;52.124;5.480;2023-06-01T01:50:38;102397.22;;;10.14;89.58
76637;BME280;65532;52.124;5.480;2023-06-01T01:53:08;102400.97;;;10.13;89.29
76637;BME280;65532;52.124;5.480;2023-06-01T01:55:36;102400.13;;;10.12;89.38
76637;BME280;65532;52.124;5.480;2023-06-01T01:58:09;102401.78;;;10.13;89.72
76637;BME280;65532;52.124;5.480;2023-06-01T02:00:39;102393.88;;;10.12;89.58
76637;BME280;65532;52.124;5.480;2023-06-01T02:03:15;102388.06;;;10.15;89.00
76637;BME280;65532;52.124;5.480;2023-06-01T02:05:43;102383.69;;;10.14;89.68
76637;BME280;65532;52.124;5.480;2023-06-01T02:08:10;102377.63;;;10.12;89.41
76637;BME280;65532;52.124;5.480;2023-06-01T02:10:38;102380.97;;;10.14;89.76
76637;BME280;65532;52.124;5.480;2023-06-01T02:13:07;102373.13;;;10.19;89.48
76637;BME280;65532;52.124;5.480;2023-06-01T02:15:33;102380.22;;;10.20;89.65
76637;BME280;65532;52.124;5.480;2023-06-01T02:18:00;102376.13;;;10.24;89.71
76637;BME280;65532;52.124;5.480;2023-06-01T02:20:27;102382.84;;;10.28;89.58
76637;BME280;65532;52.124;5.480;2023-06-01T02:22:54;102385.28;;;10.23;89.90
76637;BME280;65532;52.124;5.480;2023-06-01T02:25:21;102370.91;;;10.23;90.04
76637;BME280;65532;52.124;5.480;2023-06-01T02:27:47;102386.31;;;10.22;90.10
76637;BME280;65532;52.124;5.480;2023-06-01T02:30:14;102383.31;;;10.17;89.40
76637;BME280;65532;52.124;5.480;2023-06-01T02:32:41;102378.94;;;10.16;89.32
76637;BME280;65532;52.124;5.480;2023-06-01T02:35:12;102378.72;;;10.17;89.76
76637;BME280;65532;52.124;5.480;2023-06-01T02:37:38;102375.56;;;10.14;89.86
76637;BME280;65532;52.124;5.480;2023-06-01T02:40:06;102380.97;;;10.14;89.80
76637;BME280;65532;52.124;5.480;2023-06-01T02:42:38;102372.56;;;10.09;89.90
76637;BME280;65532;52.124;5.480;2023-06-01T02:45:06;102387.06;;;10.01;90.06
76637;BME280;65532;52.124;5.480;2023-06-01T02:47:32;102384.56;;;10.00;89.74
76637;BME280;65532;52.124;5.480;2023-06-01T02:49:59;102377.84;;;9.96;90.10
76637;BME280;65532;52.124;5.480;2023-06-01T02:52:26;102383.25;;;9.96;89.70
76637;BME280;65532;52.124;5.480;2023-06-01T02:54:53;102380.75;;;9.94;90.10
76637;BME280;65532;52.124;5.480;2023-06-01T02:57:39;102376.53;;;9.91;90.25
76637;BME280;65532;52.124;5.480;2023-06-01T03:00:07;102375.69;;;9.91;90.55
76637;BME280;65532;52.124;5.480;2023-06-01T03:02:44;102387.00;;;9.95;90.06
76637;BME280;65532;52.124;5.480;2023-06-01T03:05:13;102384.47;;;9.93;90.34
76637;BME280;65532;52.124;5.480;2023-06-01T03:07:47;102384.00;;;9.89;90.42
76637;BME280;65532;52.124;5.480;2023-06-01T03:10:23;102367.78;;;9.89;90.09
76637;BME280;65532;52.124;5.480;2023-06-01T03:12:58;102366.09;;;9.88;90.20
76637;BME280;65532;52.124;5.480;2023-06-01T03:15:25;102367.13;;;9.87;90.70
76637;BME280;65532;52.124;5.480;2023-06-01T03:17:51;102376.91;;;9.88;90.08
76637;BME280;65532;52.124;5.480;2023-06-01T03:20:18;102376.53;;;9.91;90.03
76637;BME280;65532;52.124;5.480;2023-06-01T03:22:45;102373.81;;;9.91;89.91
76637;BME280;65532;52.124;5.480;2023-06-01T03:25:12;102377.38;;;9.92;90.38
76637;BME280;65532;52.124;5.480;2023-06-01T03:27:40;102373.56;;;9.86;90.63
76637;BME280;65532;52.124;5.480;2023-06-01T03:30:08;102371.31;;;9.90;90.28
76637;BME280;65532;52.124;5.480;2023-06-01T03:32:38;102369.06;;;9.94;90.61
76637;BME280;65532;52.124;5.480;2023-06-01T03:35:05;102369.16;;;10.00;90.09
76637;BME280;65532;52.124;5.480;2023-06-01T03:37:36;102373.34;;;10.03;90.16
76637;BME280;65532;52.124;5.480;2023-06-01T03:40:04;102363.63;;;10.08;90.14
76637;BME280;65532;52.124;5.480;2023-06-01T03:42:38;102372.97;;;10.06;90.64
76637;BME280;65532;52.124;5.480;2023-06-01T03:45:05;102362.72;;;10.01;90.33
76637;BME280;65532;52.124;5.480;2023-06-01T03:47:32;102360.84;;;10.02;90.06
76637;BME280;65532;52.124;5.480;2023-06-01T03:50:00;102365.22;;;10.03;90.32
76637;BME280;65532;52.124;5.480;2023-06-01T03:52:29;102367.28;;;10.01;90.28
76637;BME280;65532;52.124;5.480;2023-06-01T03:54:58;102372.78;;;9.93;90.57
76637;BME280;65532;52.124;5.480;2023-06-01T03:57:47;102368.06;;;9.95;90.42
76637;BME280;65532;52.124;5.480;2023-06-01T04:00:14;102371.66;;;10.02;90.70
76637;BME280;65532;52.124;5.480;2023-06-01T04:02:55;102378.38;;;10.06;90.82
76637;BME280;65532;52.124;5.480;2023-06-01T04:05:24;102368.00;;;10.09;90.73
76637;BME280;65532;52.124;5.480;2023-06-01T04:07:54;102368.50;;;10.13;90.70
76637;BME280;65532;52.124;5.480;2023-06-01T04:10:21;102365.19;;;10.17;91.12
76637;BME280;65532;52.124;5.480;2023-06-01T04:12:48;102358.94;;;10.17;91.13
76637;BME280;65532;52.124;5.480;2023-06-01T04:15:17;102364.09;;;10.12;91.07
76637;BME280;65532;52.124;5.480;2023-06-01T04:17:44;102362.78;;;10.08;90.73
76637;BME280;65532;52.124;5.480;2023-06-01T04:20:13;102371.84;;;10.15;91.09
76637;BME280;65532;52.124;5.480;2023-06-01T04:22:41;102363.41;;;10.25;90.83
76637;BME280;65532;52.124;5.480;2023-06-01T04:25:09;102365.81;;;10.34;90.83
76637;BME280;65532;52.124;5.480;2023-06-01T04:27:46;102370.41;;;10.34;91.26
76637;BME280;65532;52.124;5.480;2023-06-01T04:30:15;102370.47;;;10.40;91.19
76637;BME280;65532;52.124;5.480;2023-06-01T04:32:43;102374.28;;;10.46;91.00
76637;BME280;65532;52.124;5.480;2023-06-01T04:35:15;102366.81;;;10.48;91.50
76637;BME280;65532;52.124;5.480;2023-06-01T04:37:43;102376.81;;;10.47;91.46
76637;BME280;65532;52.124;5.480;2023-06-01T04:40:11;102380.16;;;10.49;91.56
76637;BME280;65532;52.124;5.480;2023-06-01T04:42:40;102377.63;;;10.48;91.63
76637;BME280;65532;52.124;5.480;2023-06-01T04:45:23;102368.88;;;10.46;91.17
76637;BME280;65532;52.124;5.480;2023-06-01T04:47:49;102383.00;;;10.41;91.63
76637;BME280;65532;52.124;5.480;2023-06-01T04:50:30;102378.78;;;10.39;91.36
76637;BME280;65532;52.124;5.480;2023-06-01T04:52:58;102372.81;;;10.43;91.30
76637;BME280;65532;52.124;5.480;2023-06-01T04:55:24;102378.94;;;10.52;91.05
76637;BME280;65532;52.124;5.480;2023-06-01T04:57:51;102376.81;;;10.47;91.57
76637;BME280;65532;52.124;5.480;2023-06-01T05:00:17;102382.47;;;10.53;91.42
76637;BME280;65532;52.124;5.480;2023-06-01T05:02:45;102381.97;;;10.64;91.55
76637;BME280;65532;52.124;5.480;2023-06-01T05:05:14;102382.66;;;10.72;91.37
76637;BME280;65532;52.124;5.480;2023-06-01T05:07:42;102382.94;;;10.77;91.41
76637;BME280;65532;52.124;5.480;2023-06-01T05:10:10;102381.38;;;10.68;91.67
76637;BME280;65532;52.124;5.480;2023-06-01T05:12:47;102385.75;;;10.69;91.46
76637;BME280;65532;52.124;5.480;2023-06-01T05:15:15;102390.34;;;10.69;91.49
76637;BME280;65532;52.124;5.480;2023-06-01T05:17:43;102384.16;;;10.75;91.70
76637;BME280;65532;52.124;5.480;2023-06-01T05:20:14;102393.31;;;10.74;91.83
76637;BME280;65532;52.124;5.480;2023-06-01T05:22:46;102382.50;;;10.74;91.36
76637;BME280;65532;52.124;5.480;2023-06-01T05:25:13;102396.28;;;10.79;91.60
76637;BME280;65532;52.124;5.480;2023-06-01T05:27:40;102388.56;;;10.76;91.83
76637;BME280;65532;52.124;5.480;2023-06-01T05:30:07;102381.47;;;10.75;91.62
76637;BME280;65532;52.124;5.480;2023-06-01T05:32:34;102380.47;;;10.83;91.76
76637;BME280;65532;52.124;5.480;2023-06-01T05:35:08;102382.16;;;10.84;91.68
76637;BME280;65532;52.124;5.480;2023-06-01T05:37:34;102379.63;;;10.82;91.15
76637;BME280;65532;52.124;5.480;2023-06-01T05:40:01;102380.66;;;10.81;91.56
76637;BME280;65532;52.124;5.480;2023-06-01T05:42:29;102384.41;;;10.80;91.30
76637;BME280;65532;52.124;5.480;2023-06-01T05:44:56;102385.56;;;10.92;91.94
76637;BME280;65532;52.124;5.480;2023-06-01T05:47:23;102388.13;;;11.00;91.31
76637;BME280;65532;52.124;5.480;2023-06-01T05:49:49;102391.47;;;11.02;91.20
76637;BME280;65532;52.124;5.480;2023-06-01T05:52:17;102396.84;;;10.96;90.44
76637;BME280;65532;52.124;5.480;2023-06-01T05:54:43;102402.06;;;10.97;91.04
76637;BME280;65532;52.124;5.480;2023-06-01T05:57:10;102398.09;;;10.93;90.94
76637;BME280;65532;52.124;5.480;2023-06-01T05:59:37;102393.06;;;10.90;91.01
76637;BME280;65532;52.124;5.480;2023-06-01T06:02:04;102399.38;;;10.97;91.12
76637;BME280;65532;52.124;5.480;2023-06-01T06:04:31;102406.84;;;10.95;91.03
76637;BME280;65532;52.124;5.480;2023-06-01T06:06:57;102398.63;;;11.10;90.97
76637;BME280;65532;52.124;5.480;2023-06-01T06:09:24;102395.03;;;11.31;90.79
76637;BME280;65532;52.124;5.480;2023-06-01T06:11:50;102401.50;;;11.30;90.67
76637;BME280;65532;52.124;5.480;2023-06-01T06:14:17;102396.31;;;11.35;90.57
76637;BME280;65532;52.124;5.480;2023-06-01T06:16:43;102400.13;;;11.40;90.48
76637;BME280;65532;52.124;5.480;2023-06-01T06:19:10;102390.75;;;11.43;90.31
76637;BME280;65532;52.124;5.480;2023-06-01T06:21:37;102395.78;;;11.46;90.78
76637;BME280;65532;52.124;5.480;2023-06-01T06:24:04;102398.47;;;11.46;90.45
76637;BME280;65532;52.124;5.480;2023-06-01T06:26:30;102396.97;;;11.37;90.36
76637;BME280;65532;52.124;5.480;2023-06-01T06:28:57;102391.38;;;11.45;90.96
76637;BME280;65532;52.124;5.480;2023-06-01T06:31:24;102396.00;;;11.51;90.79
76637;BME280;65532;52.124;5.480;2023-06-01T06:33:50;102398.88;;;11.43;89.56
76637;BME280;65532;52.124;5.480;2023-06-01T06:36:17;102389.31;;;11.47;89.83
76637;BME280;65532;52.124;5.480;2023-06-01T06:38:44;102395.22;;;11.57;89.20
76637;BME280;65532;52.124;5.480;2023-06-01T06:41:11;102388.34;;;11.96;88.96
76637;BME280;65532;52.124;5.480;2023-06-01T06:43:38;102389.28;;;12.16;88.32
76637;BME280;65532;52.124;5.480;2023-06-01T06:46:04;102389.50;;;12.21;87.70
76637;BME280;65532;52.124;5.480;2023-06-01T06:48:31;102395.09;;;12.07;86.62
76637;BME280;65532;52.124;5.480;2023-06-01T06:50:57;102393.38;;;11.99;87.32
76637;BME280;65532;52.124;5.480;2023-06-01T06:53:24;102397.47;;;11.82;86.55
76637;BME280;65532;52.124;5.480;2023-06-01T06:55:51;102402.13;;;11.94;87.12
76637;BME280;65532;52.124;5.480;2023-06-01T06:58:17;102392.59;;;12.12;87.16
76637;BME280;65532;52.124;5.480;2023-06-01T07:00:44;102408.81;;;11.98;86.64
76637;BME280;65532;52.124;5.480;2023-06-01T07:03:10;102405.69;;;11.95;86.44
76637;BME280;65532;52.124;5.480;2023-06-01T07:05:37;102411.38;;;12.07;86.28
76637;BME280;65532;52.124;5.480;2023-06-01T07:08:04;102414.34;;;12.18;86.49
76637;BME280;65532;52.124;5.480;2023-06-01T07:10:30;102402.03;;;12.29;84.72
76637;BME280;65532;52.124;5.480;2023-06-01T07:12:57;102409.97;;;12.17;84.77
76637;BME280;65532;52.124;5.480;2023-06-01T07:15:24;102414.28;;;12.05;85.11
76637;BME280;65532;52.124;5.480;2023-06-01T07:17:51;102411.84;;;12.17;85.50
76637;BME280;65532;52.124;5.480;2023-06-01T07:20:18;102393.56;;;12.52;84.94
76637;BME280;65532;52.124;5.480;2023-06-01T07:22:44;102397.34;;;12.64;83.89
76637;BME280;65532;52.124;5.480;2023-06-01T07:25:11;102411.19;;;12.82;84.78
76637;BME280;65532;52.124;5.480;2023-06-01T07:27:39;102399.66;;;12.67;83.92
76637;BME280;65532;52.124;5.480;2023-06-01T07:30:10;102400.22;;;12.43;84.36
76637;BME280;65532;52.124;5.480;2023-06-01T07:32:38;102403.59;;;12.58;84.81
76637;BME280;65532;52.124;5.480;2023-06-01T07:35:06;102394.38;;;12.46;83.83
76637;BME280;65532;52.124;5.480;2023-06-01T07:37:34;102397.31;;;12.57;84.96
76637;BME280;65532;52.124;5.480;2023-06-01T07:40:01;102400.72;;;12.79;84.00
76637;BME280;65532;52.124;5.480;2023-06-01T07:42:27;102405.72;;;12.76;82.05
76637;BME280;65532;52.124;5.480;2023-06-01T07:44:54;102405.25;;;12.59;82.42
76637;BME280;65532;52.124;5.480;2023-06-01T07:47:20;102404.88;;;12.69;83.36
76637;BME280;65532;52.124;5.480;2023-06-01T07:49:47;102397.81;;;13.14;81.92
76637;BME280;65532;52.124;5.480;2023-06-01T07:52:14;102407.41;;;13.49;81.60
76637;BME280;65532;52.124;5.480;2023-06-01T07:54:40;102392.44;;;13.85;81.04
76637;BME280;65532;52.124;5.480;2023-06-01T07:57:07;102395.97;;;14.05;78.61
76637;BME280;65532;52.124;5.480;2023-06-01T07:59:34;102401.19;;;14.07;79.48
76637;BME280;65532;52.124;5.480;2023-06-01T08:02:01;102394.91;;;14.06;77.81
76637;BME280;65532;52.124;5.480;2023-06-01T08:04:28;102391.13;;;14.01;78.86
76637;BME280;65532;52.124;5.480;2023-06-01T08:07:00;102392.81;;;14.08;77.91
76637;BME280;65532;52.124;5.480;2023-06-01T08:09:29;102389.00;;;13.58;77.41
76637;BME280;65532;52.124;5.480;2023-06-01T08:11:56;102393.22;;;13.34;78.66
76637;BME280;65532;52.124;5.480;2023-06-01T08:14:23;102390.91;;;13.44;79.35
76637;BME280;65532;52.124;5.480;2023-06-01T08:16:50;102389.59;;;13.67;78.71
76637;BME280;65532;52.124;5.480;2023-06-01T08:19:17;102395.47;;;14.15;79.10
76637;BME280;65532;52.124;5.480;2023-06-01T08:21:44;102382.91;;;14.59;76.19
76637;BME280;65532;52.124;5.480;2023-06-01T08:24:12;102378.72;;;14.88;74.74
76637;BME280;65532;52.124;5.480;2023-06-01T08:26:39;102376.38;;;15.16;72.96
76637;BME280;65532;52.124;5.480;2023-06-01T08:29:06;102387.34;;;15.35;74.03
76637;BME280;65532;52.124;5.480;2023-06-01T08:31:32;102380.28;;;15.02;72.61
76637;BME280;65532;52.124;5.480;2023-06-01T08:33:59;102374.72;;;15.15;72.75
76637;BME280;65532;52.124;5.480;2023-06-01T08:36:26;102377.25;;;15.10;72.11
76637;BME280;65532;52.124;5.480;2023-06-01T08:38:54;102376.94;;;15.43;71.21
76637;BME280;65532;52.124;5.480;2023-06-01T08:41:30;102384.75;;;15.58;69.44
76637;BME280;65532;52.124;5.480;2023-06-01T08:43:59;102375.03;;;15.25;70.86
76637;BME280;65532;52.124;5.480;2023-06-01T08:46:31;102376.38;;;15.60;72.17
76637;BME280;65532;52.124;5.480;2023-06-01T08:48:58;102375.72;;;15.82;70.43
76637;BME280;65532;52.124;5.480;2023-06-01T08:51:26;102389.44;;;15.33;69.39
76637;BME280;65532;52.124;5.480;2023-06-01T08:53:53;102379.44;;;15.02;71.20
76637;BME280;65532;52.124;5.480;2023-06-01T08:56:23;102381.84;;;15.16;69.88
76637;BME280;65532;52.124;5.480;2023-06-01T08:58:50;102369.63;;;14.94;70.90
76637;BME280;65532;52.124;5.480;2023-06-01T09:01:18;102366.50;;;14.65;72.39
76637;BME280;65532;52.124;5.480;2023-06-01T09:03:48;102365.59;;;15.03;71.90
76637;BME280;65532;52.124;5.480;2023-06-01T09:06:15;102367.09;;;14.99;70.90
76637;BME280;65532;52.124;5.480;2023-06-01T09:08:42;102368.75;;;14.75;71.11
76637;BME280;65532;52.124;5.480;2023-06-01T09:11:09;102372.03;;;15.34;71.45
76637;BME280;65532;52.124;5.480;2023-06-01T09:13:40;102372.19;;;15.57;69.89
76637;BME280;65532;52.124;5.480;2023-06-01T09:16:07;102368.09;;;15.48;69.24
76637;BME280;65532;52.124;5.480;2023-06-01T09:18:33;102376.09;;;15.24;70.37
76637;BME280;65532;52.124;5.480;2023-06-01T09:21:11;102365.53;;;15.90;70.32
76637;BME280;65532;52.124;5.480;2023-06-01T09:23:38;102361.03;;;16.43;67.50
76637;BME280;65532;52.124;5.480;2023-06-01T09:26:06;102365.19;;;16.16;67.78
76637;BME280;65532;52.124;5.480;2023-06-01T09:34:01;102343.38;;;16.58;66.76
76637;BME280;65532;52.124;5.480;2023-06-01T09:36:28;102338.47;;;16.90;65.21
76637;BME280;65532;52.124;5.480;2023-06-01T09:39:09;102334.94;;;16.71;64.98
76637;BME280;65532;52.124;5.480;2023-06-01T09:44:13;102334.69;;;16.61;64.57
76637;BME280;65532;52.124;5.480;2023-06-01T09:46:50;102340.41;;;16.71;64.21
76637;BME280;65532;52.124;5.480;2023-06-01T09:49:31;102343.91;;;17.01;64.86
76637;BME280;65532;52.124;5.480;2023-06-01T09:54:33;102343.16;;;17.64;61.44
76637;BME280;65532;52.124;5.480;2023-06-01T09:57:01;102330.03;;;17.66;63.21
76637;BME280;65532;52.124;5.480;2023-06-01T09:59:42;102343.34;;;18.26;58.51
76637;BME280;65532;52.124;5.480;2023-06-01T10:02:13;102341.41;;;17.99;62.27
76637;BME280;65532;52.124;5.480;2023-06-01T10:04:42;102332.78;;;17.66;62.13
76637;BME280;65532;52.124;5.480;2023-06-01T10:07:12;102324.03;;;17.29;63.06
76637;BME280;65532;52.124;5.480;2023-06-01T10:09:42;102326.72;;;17.76;63.76
76637;BME280;65532;52.124;5.480;2023-06-01T10:12:10;102328.50;;;18.11;61.11
76637;BME280;65532;52.124;5.480;2023-06-01T10:14:39;102323.47;;;17.91;61.18
76637;BME280;65532;52.124;5.480;2023-06-01T10:17:07;102334.00;;;17.47;61.31
76637;BME280;65532;52.124;5.480;2023-06-01T10:19:36;102327.72;;;17.99;62.11
76637;BME280;65532;52.124;5.480;2023-06-01T10:22:05;102334.00;;;17.47;61.35
76637;BME280;65532;52.124;5.480;2023-06-01T10:24:34;102330.19;;;17.48;61.62
76637;BME280;65532;52.124;5.480;2023-06-01T10:27:24;102334.06;;;17.24;62.74
76637;BME280;65532;52.124;5.480;2023-06-01T10:29:53;102329.38;;;17.48;62.84
76637;BME280;65532;52.124;5.480;2023-06-01T10:32:43;102330.69;;;18.25;60.83
76637;BME280;65532;52.124;5.480;2023-06-01T10:40:37;102336.09;;;17.92;60.58
76637;BME280;65532;52.124;5.480;2023-06-01T10:43:04;102327.59;;;18.05;58.94
76637;BME280;65532;52.124;5.480;2023-06-01T10:45:38;102334.47;;;17.67;57.43
76637;BME280;65532;52.124;5.480;2023-06-01T10:48:10;102330.00;;;16.91;60.04
76637;BME280;65532;52.124;5.480;2023-06-01T10:50:39;102322.25;;;17.35;61.25
76637;BME280;65532;52.124;5.480;2023-06-01T10:53:35;102319.00;;;17.61;61.48
76637;BME280;65532;52.124;5.480;2023-06-01T11:01:44;102321.22;;;17.88;59.33
76637;BME280;65532;52.124;5.480;2023-06-01T11:04:12;102313.94;;;18.39;58.32
76637;BME280;65532;52.124;5.480;2023-06-01T11:06:40;102311.28;;;18.44;58.07
76637;BME280;65532;52.124;5.480;2023-06-01T11:09:12;102312.16;;;18.16;57.69
76637;BME280;65532;52.124;5.480;2023-06-01T11:14:21;102305.44;;;18.23;59.81
76637;BME280;65532;52.124;5.480;2023-06-01T11:16:53;102311.28;;;18.61;56.87
76637;BME280;65532;52.124;5.480;2023-06-01T11:19:25;102307.66;;;18.55;58.42
76637;BME280;65532;52.124;5.480;2023-06-01T11:21:56;102307.03;;;18.81;57.94
76637;BME280;65532;52.124;5.480;2023-06-01T11:24:32;102306.00;;;19.04;56.15
76637;BME280;65532;52.124;5.480;2023-06-01T11:27:06;102307.50;;;19.12;57.78
76637;BME280;65532;52.124;5.480;2023-06-01T11:29:33;102306.31;;;19.08;57.51
76637;BME280;65532;52.124;5.480;2023-06-01T11:32:02;102301.56;;;19.59;56.00
76637;BME280;65532;52.124;5.480;2023-06-01T11:34:37;102303.66;;;19.13;55.61
76637;BME280;65532;52.124;5.480;2023-06-01T11:37:12;102311.50;;;19.43;56.43
76637;BME280;65532;52.124;5.480;2023-06-01T11:39:40;102293.72;;;18.73;55.13
76637;BME280;65532;52.124;5.480;2023-06-01T11:42:12;102299.06;;;18.63;56.76
76637;BME280;65532;52.124;5.480;2023-06-01T11:44:42;102299.19;;;18.11;58.07
76637;BME280;65532;52.124;5.480;2023-06-01T11:47:10;102301.16;;;18.44;57.82
76637;BME280;65532;52.124;5.480;2023-06-01T11:49:45;102299.16;;;19.07;56.38
76637;BME280;65532;52.124;5.480;2023-06-01T11:52:14;102295.06;;;19.26;56.45
76637;BME280;65532;52.124;5.480;2023-06-01T11:54:40;102292.81;;;19.23;56.58
76637;BME280;65532;52.124;5.480;2023-06-01T11:57:07;102295.44;;;19.35;58.10
76637;BME280;65532;52.124;5.480;2023-06-01T11:59:45;102304.00;;;19.38;55.67
76637;BME280;65532;52.124;5.480;2023-06-01T12:02:20;102294.09;;;19.15;57.20
76637;BME280;65532;52.124;5.480;2023-06-01T12:05:14;102299.31;;;19.17;57.48
76637;BME280;65532;52.124;5.480;2023-06-01T12:07:48;102300.31;;;19.50;56.85
76637;BME280;65532;52.124;5.480;2023-06-01T12:10:17;102295.97;;;19.32;56.97
76637;BME280;65532;52.124;5.480;2023-06-01T12:12:45;102296.78;;;19.32;57.79
76637;BME280;65532;52.124;5.480;2023-06-01T12:15:18;102312.16;;;19.11;56.41
76637;BME280;65532;52.124;5.480;2023-06-01T12:17:55;102306.81;;;18.38;59.44
76637;BME280;65532;52.124;5.480;2023-06-01T12:20:36;102301.09;;;18.11;60.33
76637;BME280;65532;52.124;5.480;2023-06-01T12:25:52;102330.72;;;17.22;64.12
76637;BME280;65532;52.124;5.480;2023-06-01T12:28:20;102322.09;;;16.71;64.72
76637;BME280;65532;52.124;5.480;2023-06-01T12:30:48;102326.41;;;16.37;65.89
76637;BME280;65532;52.124;5.480;2023-06-01T12:33:35;102320.75;;;16.21;67.02
76637;BME280;65532;52.124;5.480;2023-06-01T12:36:03;102311.91;;;16.07;67.41
76637;BME280;65532;52.124;5.480;2023-06-01T12:38:38;102327.81;;;15.98;68.37
76637;BME280;65532;52.124;5.480;2023-06-01T12:41:15;102328.50;;;15.75;69.56
76637;BME280;65532;52.124;5.480;2023-06-01T12:43:48;102325.56;;;16.07;69.40
76637;BME280;65532;52.124;5.480;2023-06-01T12:48:46;102322.13;;;16.00;70.15
76637;BME280;65532;52.124;5.480;2023-06-01T12:51:16;102307.09;;;16.21;69.26
76637;BME280;65532;52.124;5.480;2023-06-01T12:53:43;102312.38;;;16.04;68.15
76637;BME280;65532;52.124;5.480;2023-06-01T12:56:10;102324.72;;;15.76;69.53
76637;BME280;65532;52.124;5.480;2023-06-01T12:58:37;102310.03;;;15.59;70.26
76637;BME280;65532;52.124;5.480;2023-06-01T13:01:05;102325.84;;;15.87;70.96
76637;BME280;65532;52.124;5.480;2023-06-01T13:03:32;102315.41;;;16.14;68.27
76637;BME280;65532;52.124;5.480;2023-06-01T13:06:00;102327.53;;;15.70;70.56
76637;BME280;65532;52.124;5.480;2023-06-01T13:08:26;102323.19;;;15.44;70.89
76637;BME280;65532;52.124;5.480;2023-06-01T13:10:53;102335.94;;;15.32;71.88
76637;BME280;65532;52.124;5.480;2023-06-01T13:13:20;102321.88;;;15.10;72.48
76637;BME280;65532;52.124;5.480;2023-06-01T13:15:47;102314.53;;;15.28;72.99
76637;BME280;65532;52.124;5.480;2023-06-01T13:18:15;102316.41;;;16.01;71.82
76637;BME280;65532;52.124;5.480;2023-06-01T13:20:42;102306.03;;;15.92;70.97
76637;BME280;65532;52.124;5.480;2023-06-01T13:23:09;102315.63;;;15.82;70.40
76637;BME280;65532;52.124;5.480;2023-06-01T13:25:37;102310.78;;;15.66;71.59
76637;BME280;65532;52.124;5.480;2023-06-01T13:28:04;102303.69;;;15.95;71.53
76637;BME280;65532;52.124;5.480;2023-06-01T13:30:32;102309.59;;;15.62;70.97
76637;BME280;65532;52.124;5.480;2023-06-01T13:33:00;102305.59;;;15.76;70.17
76637;BME280;65532;52.124;5.480;2023-06-01T13:35:26;102307.13;;;15.54;71.94
76637;BME280;65532;52.124;5.480;2023-06-01T13:37:53;102310.44;;;15.38;72.49
76637;BME280;65532;52.124;5.480;2023-06-01T13:40:20;102303.91;;;15.64;73.14
76637;BME280;65532;52.124;5.480;2023-06-01T13:42:50;102307.88;;;15.61;72.54